sensor_id;sensor_type;location;lat;lon;timestamp;P1;durP1;ratioP1;P2;durP2;ratioP2
19285;SDS011;9776;50.798;6.430;2023-04-21T00:01:06;22.08;;;14.95;;
19285;SDS011;9776;50.798;6.430;2023-04-21T00:03:36;23.17;;;15.57;;
19285;SDS011;9776;50.798;6.430;2023-04-21T00:06:05;23.67;;;15.20;;
19285;SDS011;9776;50.798;6.430;2023-04-21T00:08:32;23.38;;;15.27;;
19285;SDS011;9776;50.798;6.430;2023-04-21T00:11:02;21.92;;;15.50;;
19285;SDS011;9776;50.798;6.430;2023-04-21T00:13:28;23.58;;;15.55;;
19285;SDS011;9776;50.798;6.430;2023-04-21T00:15:55;21.67;;;15.00;;
19285;SDS011;9776;50.798;6.430;2023-04-21T00:18:22;23.65;;;16.17;;
19285;SDS011;9776;50.798;6.430;2023-04-21T00:20:49;23.95;;;16.27;;
19285;SDS011;9776;50.798;6.430;2023-04-21T00:23:17;25.52;;;16.67;;
19285;SDS011;9776;50.798;6.430;2023-04-21T00:25:44;23.98;;;16.05;;
19285;SDS011;9776;50.798;6.430;2023-04-21T00:28:11;24.55;;;16.20;;
19285;SDS011;9776;50.798;6.430;2023-04-21T00:30:37;24.05;;;15.82;;
19285;SDS011;9776;50.798;6.430;2023-04-21T00:33:04;24.02;;;15.88;;
19285;SDS011;9776;50.798;6.430;2023-04-21T00:35:31;24.15;;;16.00;;
19285;SDS011;9776;50.798;6.430;2023-04-21T00:37:57;24.58;;;16.20;;
19285;SDS011;9776;50.798;6.430;2023-04-21T00:40:26;24.70;;;16.65;;
19285;SDS011;9776;50.798;6.430;2023-04-21T00:42:54;26.17;;;16.70;;
19285;SDS011;9776;50.798;6.430;2023-04-21T00:45:21;25.00;;;16.73;;
19285;SDS011;9776;50.798;6.430;2023-04-21T00:47:48;25.05;;;16.98;;
19285;SDS011;9776;50.798;6.430;2023-04-21T00:50:14;25.00;;;16.63;;
19285;SDS011;9776;50.798;6.430;2023-04-21T00:52:41;26.88;;;17.92;;
19285;SDS011;9776;50.798;6.430;2023-04-21T00:55:11;27.25;;;17.10;;
19285;SDS011;9776;50.798;6.430;2023-04-21T00:57:39;27.15;;;17.55;;
19285;SDS011;9776;50.798;6.430;2023-04-21T01:00:06;25.48;;;17.23;;
19285;SDS011;9776;50.798;6.430;2023-04-21T01:02:34;25.33;;;16.90;;
19285;SDS011;9776;50.798;6.430;2023-04-21T01:05:03;28.48;;;18.40;;
19285;SDS011;9776;50.798;6.430;2023-04-21T01:07:33;26.88;;;15.88;;
19285;SDS011;9776;50.798;6.430;2023-04-21T01:09:59;25.73;;;16.77;;
19285;SDS011;9776;50.798;6.430;2023-04-21T01:12:27;26.13;;;17.52;;
19285;SDS011;9776;50.798;6.430;2023-04-21T01:14:55;27.38;;;17.45;;
19285;SDS011;9776;50.798;6.430;2023-04-21T01:17:22;25.85;;;16.95;;
19285;SDS011;9776;50.798;6.430;2023-04-21T01:19:49;28.35;;;17.05;;
19285;SDS011;9776;50.798;6.430;2023-04-21T01:22:19;26.75;;;17.75;;
19285;SDS011;9776;50.798;6.430;2023-04-21T01:24:46;27.70;;;16.92;;
19285;SDS011;9776;50.798;6.430;2023-04-21T01:27:14;25.13;;;16.65;;
19285;SDS011;9776;50.798;6.430;2023-04-21T01:29:42;27.02;;;17.48;;
19285;SDS011;9776;50.798;6.430;2023-04-21T01:32:12;27.58;;;17.60;;
19285;SDS011;9776;50.798;6.430;2023-04-21T01:34:41;26.70;;;17.83;;
19285;SDS011;9776;50.798;6.430;2023-04-21T01:37:09;28.20;;;17.83;;
19285;SDS011;9776;50.798;6.430;2023-04-21T01:39:38;30.40;;;18.83;;
19285;SDS011;9776;50.798;6.430;2023-04-21T01:42:05;30.15;;;18.90;;
19285;SDS011;9776;50.798;6.430;2023-04-21T01:44:32;28.40;;;18.02;;
19285;SDS011;9776;50.798;6.430;2023-04-21T01:46:59;28.65;;;18.95;;
19285;SDS011;9776;50.798;6.430;2023-04-21T01:49:26;29.00;;;19.05;;
19285;SDS011;9776;50.798;6.430;2023-04-21T01:51:53;30.98;;;19.65;;
19285;SDS011;9776;50.798;6.430;2023-04-21T01:54:20;29.33;;;18.85;;
19285;SDS011;9776;50.798;6.430;2023-04-21T01:56:48;30.67;;;20.02;;
19285;SDS011;9776;50.798;6.430;2023-04-21T01:59:14;31.52;;;19.42;;
19285;SDS011;9776;50.798;6.430;2023-04-21T02:01:41;33.35;;;20.33;;
19285;SDS011;9776;50.798;6.430;2023-04-21T02:04:08;32.75;;;21.10;;
19285;SDS011;9776;50.798;6.430;2023-04-21T02:06:35;33.30;;;21.20;;
19285;SDS011;9776;50.798;6.430;2023-04-21T02:09:01;33.45;;;20.88;;
19285;SDS011;9776;50.798;6.430;2023-04-21T02:11:28;33.85;;;21.05;;
19285;SDS011;9776;50.798;6.430;2023-04-21T02:13:56;32.85;;;20.83;;
19285;SDS011;9776;50.798;6.430;2023-04-21T02:16:23;31.73;;;20.05;;
19285;SDS011;9776;50.798;6.430;2023-04-21T02:18:50;33.38;;;20.33;;
19285;SDS011;9776;50.798;6.430;2023-04-21T02:21:18;31.92;;;19.45;;
19285;SDS011;9776;50.798;6.430;2023-04-21T02:23:44;29.67;;;19.88;;
19285;SDS011;9776;50.798;6.430;2023-04-21T02:26:11;30.95;;;19.75;;
19285;SDS011;9776;50.798;6.430;2023-04-21T02:28:38;29.45;;;19.35;;
19285;SDS011;9776;50.798;6.430;2023-04-21T02:31:06;27.98;;;19.50;;
19285;SDS011;9776;50.798;6.430;2023-04-21T02:33:32;27.73;;;19.35;;
19285;SDS011;9776;50.798;6.430;2023-04-21T02:35:59;29.73;;;18.90;;
19285;SDS011;9776;50.798;6.430;2023-04-21T02:38:26;27.63;;;18.48;;
19285;SDS011;9776;50.798;6.430;2023-04-21T02:40:52;30.98;;;20.20;;
19285;SDS011;9776;50.798;6.430;2023-04-21T02:43:19;28.13;;;18.48;;
19285;SDS011;9776;50.798;6.430;2023-04-21T02:45:45;27.48;;;18.02;;
19285;SDS011;9776;50.798;6.430;2023-04-21T02:48:13;26.48;;;18.67;;
19285;SDS011;9776;50.798;6.430;2023-04-21T02:50:41;28.13;;;18.85;;
19285;SDS011;9776;50.798;6.430;2023-04-21T02:53:08;28.95;;;19.42;;
19285;SDS011;9776;50.798;6.430;2023-04-21T02:55:35;29.17;;;19.15;;
19285;SDS011;9776;50.798;6.430;2023-04-21T02:58:01;28.15;;;19.02;;
19285;SDS011;9776;50.798;6.430;2023-04-21T03:00:28;28.58;;;18.60;;
19285;SDS011;9776;50.798;6.430;2023-04-21T03:02:54;31.88;;;19.55;;
19285;SDS011;9776;50.798;6.430;2023-04-21T03:05:22;27.83;;;18.23;;
19285;SDS011;9776;50.798;6.430;2023-04-21T03:07:49;28.52;;;18.33;;
19285;SDS011;9776;50.798;6.430;2023-04-21T03:10:16;30.48;;;18.83;;
19285;SDS011;9776;50.798;6.430;2023-04-21T03:12:43;27.98;;;18.33;;
19285;SDS011;9776;50.798;6.430;2023-04-21T03:15:10;28.55;;;18.25;;
19285;SDS011;9776;50.798;6.430;2023-04-21T03:17:38;27.73;;;17.95;;
19285;SDS011;9776;50.798;6.430;2023-04-21T03:20:05;25.85;;;17.30;;
19285;SDS011;9776;50.798;6.430;2023-04-21T03:22:34;28.92;;;18.27;;
19285;SDS011;9776;50.798;6.430;2023-04-21T03:25:01;27.05;;;18.30;;
19285;SDS011;9776;50.798;6.430;2023-04-21T03:27:28;27.15;;;17.77;;
19285;SDS011;9776;50.798;6.430;2023-04-21T03:29:55;26.48;;;17.88;;
19285;SDS011;9776;50.798;6.430;2023-04-21T03:32:22;28.23;;;17.60;;
19285;SDS011;9776;50.798;6.430;2023-04-21T03:34:48;26.48;;;17.40;;
19285;SDS011;9776;50.798;6.430;2023-04-21T03:37:15;25.30;;;16.90;;
19285;SDS011;9776;50.798;6.430;2023-04-21T03:39:43;28.25;;;18.08;;
19285;SDS011;9776;50.798;6.430;2023-04-21T03:42:10;25.40;;;17.10;;
19285;SDS011;9776;50.798;6.430;2023-04-21T03:44:36;26.63;;;17.38;;
19285;SDS011;9776;50.798;6.430;2023-04-21T03:47:03;26.77;;;17.00;;
19285;SDS011;9776;50.798;6.430;2023-04-21T03:49:30;24.58;;;16.40;;
19285;SDS011;9776;50.798;6.430;2023-04-21T03:51:59;25.35;;;17.00;;
19285;SDS011;9776;50.798;6.430;2023-04-21T03:54:26;25.27;;;16.88;;
19285;SDS011;9776;50.798;6.430;2023-04-21T03:56:54;24.42;;;15.90;;
19285;SDS011;9776;50.798;6.430;2023-04-21T03:59:20;25.73;;;16.38;;
19285;SDS011;9776;50.798;6.430;2023-04-21T04:01:47;27.35;;;16.90;;
19285;SDS011;9776;50.798;6.430;2023-04-21T04:04:13;28.27;;;17.15;;
19285;SDS011;9776;50.798;6.430;2023-04-21T04:06:40;29.80;;;18.40;;
19285;SDS011;9776;50.798;6.430;2023-04-21T04:09:07;28.70;;;17.60;;
19285;SDS011;9776;50.798;6.430;2023-04-21T04:11:33;28.65;;;18.48;;
19285;SDS011;9776;50.798;6.430;2023-04-21T04:14:02;26.80;;;16.90;;
19285;SDS011;9776;50.798;6.430;2023-04-21T04:16:28;27.50;;;17.80;;
19285;SDS011;9776;50.798;6.430;2023-04-21T04:18:55;28.63;;;17.45;;
19285;SDS011;9776;50.798;6.430;2023-04-21T04:21:22;28.95;;;17.63;;
19285;SDS011;9776;50.798;6.430;2023-04-21T04:23:49;27.77;;;17.10;;
19285;SDS011;9776;50.798;6.430;2023-04-21T04:26:16;31.35;;;19.42;;
19285;SDS011;9776;50.798;6.430;2023-04-21T04:28:43;30.30;;;18.60;;
19285;SDS011;9776;50.798;6.430;2023-04-21T04:31:10;30.20;;;18.35;;
19285;SDS011;9776;50.798;6.430;2023-04-21T04:33:39;29.63;;;17.60;;
19285;SDS011;9776;50.798;6.430;2023-04-21T04:36:07;29.48;;;18.00;;
19285;SDS011;9776;50.798;6.430;2023-04-21T04:38:34;31.17;;;18.27;;
19285;SDS011;9776;50.798;6.430;2023-04-21T04:41:01;30.52;;;17.75;;
19285;SDS011;9776;50.798;6.430;2023-04-21T04:43:29;29.02;;;17.67;;
19285;SDS011;9776;50.798;6.430;2023-04-21T04:45:57;30.90;;;17.83;;
19285;SDS011;9776;50.798;6.430;2023-04-21T04:50:54;29.33;;;17.65;;
19285;SDS011;9776;50.798;6.430;2023-04-21T04:53:21;30.08;;;18.60;;
19285;SDS011;9776;50.798;6.430;2023-04-21T04:55:48;32.85;;;19.90;;
19285;SDS011;9776;50.798;6.430;2023-04-21T04:58:14;32.58;;;18.65;;
19285;SDS011;9776;50.798;6.430;2023-04-21T05:00:41;31.35;;;19.17;;
19285;SDS011;9776;50.798;6.430;2023-04-21T05:03:08;31.35;;;19.00;;
19285;SDS011;9776;50.798;6.430;2023-04-21T05:05:37;28.77;;;18.40;;
19285;SDS011;9776;50.798;6.430;2023-04-21T05:08:04;29.52;;;19.27;;
19285;SDS011;9776;50.798;6.430;2023-04-21T05:10:31;30.75;;;19.13;;
19285;SDS011;9776;50.798;6.430;2023-04-21T05:12:57;32.03;;;18.65;;
19285;SDS011;9776;50.798;6.430;2023-04-21T05:15:24;30.83;;;18.33;;
19285;SDS011;9776;50.798;6.430;2023-04-21T05:17:50;29.75;;;18.58;;
19285;SDS011;9776;50.798;6.430;2023-04-21T05:20:17;30.30;;;18.80;;
19285;SDS011;9776;50.798;6.430;2023-04-21T05:22:45;30.30;;;18.90;;
19285;SDS011;9776;50.798;6.430;2023-04-21T05:25:12;32.17;;;19.23;;
19285;SDS011;9776;50.798;6.430;2023-04-21T05:27:39;33.63;;;19.25;;
19285;SDS011;9776;50.798;6.430;2023-04-21T05:30:06;32.85;;;20.27;;
19285;SDS011;9776;50.798;6.430;2023-04-21T05:32:34;33.00;;;19.58;;
19285;SDS011;9776;50.798;6.430;2023-04-21T05:35:01;34.50;;;19.60;;
19285;SDS011;9776;50.798;6.430;2023-04-21T05:37:28;31.90;;;19.13;;
19285;SDS011;9776;50.798;6.430;2023-04-21T05:39:56;30.88;;;18.33;;
19285;SDS011;9776;50.798;6.430;2023-04-21T05:42:22;32.05;;;18.55;;
19285;SDS011;9776;50.798;6.430;2023-04-21T05:44:49;30.85;;;19.02;;
19285;SDS011;9776;50.798;6.430;2023-04-21T05:47:16;28.80;;;17.40;;
19285;SDS011;9776;50.798;6.430;2023-04-21T05:49:42;28.20;;;17.30;;
19285;SDS011;9776;50.798;6.430;2023-04-21T05:52:14;27.98;;;16.70;;
19285;SDS011;9776;50.798;6.430;2023-04-21T05:54:40;30.02;;;17.55;;
19285;SDS011;9776;50.798;6.430;2023-04-21T05:57:09;27.67;;;16.83;;
19285;SDS011;9776;50.798;6.430;2023-04-21T05:59:35;31.38;;;18.00;;
19285;SDS011;9776;50.798;6.430;2023-04-21T06:02:02;28.90;;;17.83;;
19285;SDS011;9776;50.798;6.430;2023-04-21T06:04:28;28.17;;;17.77;;
19285;SDS011;9776;50.798;6.430;2023-04-21T06:06:55;28.75;;;18.02;;
19285;SDS011;9776;50.798;6.430;2023-04-21T06:09:22;28.98;;;18.25;;
19285;SDS011;9776;50.798;6.430;2023-04-21T06:11:48;31.27;;;17.67;;
19285;SDS011;9776;50.798;6.430;2023-04-21T06:14:16;32.55;;;19.02;;
19285;SDS011;9776;50.798;6.430;2023-04-21T06:16:43;29.98;;;18.08;;
19285;SDS011;9776;50.798;6.430;2023-04-21T06:19:10;29.30;;;17.88;;
19285;SDS011;9776;50.798;6.430;2023-04-21T06:21:36;29.45;;;18.00;;
19285;SDS011;9776;50.798;6.430;2023-04-21T06:24:03;27.40;;;17.00;;
19285;SDS011;9776;50.798;6.430;2023-04-21T06:26:30;30.13;;;17.73;;
19285;SDS011;9776;50.798;6.430;2023-04-21T06:28:57;29.33;;;17.83;;
19285;SDS011;9776;50.798;6.430;2023-04-21T06:31:25;28.08;;;16.65;;
19285;SDS011;9776;50.798;6.430;2023-04-21T06:33:52;27.95;;;17.10;;
19285;SDS011;9776;50.798;6.430;2023-04-21T06:36:18;33.50;;;19.08;;
19285;SDS011;9776;50.798;6.430;2023-04-21T06:38:45;26.10;;;17.27;;
19285;SDS011;9776;50.798;6.430;2023-04-21T06:41:12;32.10;;;17.95;;
19285;SDS011;9776;50.798;6.430;2023-04-21T06:43:39;24.38;;;16.17;;
19285;SDS011;9776;50.798;6.430;2023-04-21T06:46:05;27.63;;;16.95;;
19285;SDS011;9776;50.798;6.430;2023-04-21T06:48:34;24.23;;;15.60;;
19285;SDS011;9776;50.798;6.430;2023-04-21T06:51:00;25.67;;;15.73;;
19285;SDS011;9776;50.798;6.430;2023-04-21T06:53:27;23.33;;;15.35;;
19285;SDS011;9776;50.798;6.430;2023-04-21T06:55:53;20.50;;;13.88;;
19285;SDS011;9776;50.798;6.430;2023-04-21T06:58:20;19.30;;;13.23;;
19285;SDS011;9776;50.798;6.430;2023-04-21T07:00:47;20.88;;;13.82;;
19285;SDS011;9776;50.798;6.430;2023-04-21T07:03:14;20.77;;;14.07;;
19285;SDS011;9776;50.798;6.430;2023-04-21T07:05:42;21.05;;;14.07;;
19285;SDS011;9776;50.798;6.430;2023-04-21T07:08:08;22.02;;;13.82;;
19285;SDS011;9776;50.798;6.430;2023-04-21T07:10:35;21.17;;;14.13;;
19285;SDS011;9776;50.798;6.430;2023-04-21T07:13:02;19.88;;;13.23;;
19285;SDS011;9776;50.798;6.430;2023-04-21T07:15:28;17.60;;;12.63;;
19285;SDS011;9776;50.798;6.430;2023-04-21T07:17:55;19.50;;;12.82;;
19285;SDS011;9776;50.798;6.430;2023-04-21T07:20:22;17.52;;;12.15;;
19285;SDS011;9776;50.798;6.430;2023-04-21T07:22:50;17.38;;;12.13;;
19285;SDS011;9776;50.798;6.430;2023-04-21T07:25:17;17.88;;;11.95;;
19285;SDS011;9776;50.798;6.430;2023-04-21T07:27:44;16.80;;;11.98;;
19285;SDS011;9776;50.798;6.430;2023-04-21T07:30:11;14.95;;;11.30;;
19285;SDS011;9776;50.798;6.430;2023-04-21T07:32:38;17.15;;;12.43;;
19285;SDS011;9776;50.798;6.430;2023-04-21T07:35:04;16.27;;;11.93;;
19285;SDS011;9776;50.798;6.430;2023-04-21T07:37:32;15.13;;;10.77;;
19285;SDS011;9776;50.798;6.430;2023-04-21T07:40:01;15.77;;;11.38;;
19285;SDS011;9776;50.798;6.430;2023-04-21T07:42:28;16.13;;;11.48;;
19285;SDS011;9776;50.798;6.430;2023-04-21T07:44:54;17.67;;;12.00;;
19285;SDS011;9776;50.798;6.430;2023-04-21T07:47:21;15.60;;;11.38;;
19285;SDS011;9776;50.798;6.430;2023-04-21T07:49:48;13.82;;;10.45;;
19285;SDS011;9776;50.798;6.430;2023-04-21T07:52:15;14.70;;;9.88;;
19285;SDS011;9776;50.798;6.430;2023-04-21T07:54:41;14.80;;;10.18;;
19285;SDS011;9776;50.798;6.430;2023-04-21T07:57:09;15.32;;;10.60;;
19285;SDS011;9776;50.798;6.430;2023-04-21T07:59:36;13.38;;;10.27;;
19285;SDS011;9776;50.798;6.430;2023-04-21T08:02:02;13.10;;;9.95;;
19285;SDS011;9776;50.798;6.430;2023-04-21T08:04:29;13.02;;;9.40;;
19285;SDS011;9776;50.798;6.430;2023-04-21T08:06:56;12.23;;;9.52;;
19285;SDS011;9776;50.798;6.430;2023-04-21T08:09:23;11.20;;;8.88;;
19285;SDS011;9776;50.798;6.430;2023-04-21T08:11:49;14.55;;;9.57;;
19285;SDS011;9776;50.798;6.430;2023-04-21T08:14:17;12.25;;;9.90;;
19285;SDS011;9776;50.798;6.430;2023-04-21T08:16:44;12.80;;;9.57;;
19285;SDS011;9776;50.798;6.430;2023-04-21T08:19:10;13.18;;;9.75;;
19285;SDS011;9776;50.798;6.430;2023-04-21T08:21:37;11.98;;;9.23;;
19285;SDS011;9776;50.798;6.430;2023-04-21T08:24:04;11.52;;;9.07;;
19285;SDS011;9776;50.798;6.430;2023-04-21T08:26:31;11.98;;;9.13;;
19285;SDS011;9776;50.798;6.430;2023-04-21T08:28:58;11.15;;;9.07;;
19285;SDS011;9776;50.798;6.430;2023-04-21T08:31:27;10.75;;;8.55;;
19285;SDS011;9776;50.798;6.430;2023-04-21T08:33:53;11.43;;;9.43;;
19285;SDS011;9776;50.798;6.430;2023-04-21T08:36:20;10.68;;;8.48;;
19285;SDS011;9776;50.798;6.430;2023-04-21T08:38:47;12.20;;;8.82;;
19285;SDS011;9776;50.798;6.430;2023-04-21T08:41:13;11.35;;;8.43;;
19285;SDS011;9776;50.798;6.430;2023-04-21T08:43:40;11.75;;;8.52;;
19285;SDS011;9776;50.798;6.430;2023-04-21T08:46:07;11.20;;;8.18;;
19285;SDS011;9776;50.798;6.430;2023-04-21T08:48:36;9.57;;;7.75;;
19285;SDS011;9776;50.798;6.430;2023-04-21T08:51:05;10.90;;;8.48;;
19285;SDS011;9776;50.798;6.430;2023-04-21T08:53:33;12.13;;;8.65;;
19285;SDS011;9776;50.798;6.430;2023-04-21T08:56:00;10.57;;;8.45;;
19285;SDS011;9776;50.798;6.430;2023-04-21T08:58:27;10.02;;;8.10;;
19285;SDS011;9776;50.798;6.430;2023-04-21T09:00:54;10.15;;;8.32;;
19285;SDS011;9776;50.798;6.430;2023-04-21T09:03:22;9.38;;;7.55;;
19285;SDS011;9776;50.798;6.430;2023-04-21T09:05:57;10.90;;;8.05;;
19285;SDS011;9776;50.798;6.430;2023-04-21T09:08:24;10.60;;;8.00;;
19285;SDS011;9776;50.798;6.430;2023-04-21T09:10:53;9.73;;;7.57;;
19285;SDS011;9776;50.798;6.430;2023-04-21T09:13:20;9.55;;;7.93;;
19285;SDS011;9776;50.798;6.430;2023-04-21T09:15:55;11.23;;;8.20;;
19285;SDS011;9776;50.798;6.430;2023-04-21T09:18:22;10.25;;;8.07;;
19285;SDS011;9776;50.798;6.430;2023-04-21T09:20:50;11.05;;;8.10;;
19285;SDS011;9776;50.798;6.430;2023-04-21T09:23:20;10.57;;;7.70;;
19285;SDS011;9776;50.798;6.430;2023-04-21T09:25:47;10.25;;;8.02;;
19285;SDS011;9776;50.798;6.430;2023-04-21T09:28:13;10.50;;;8.13;;
19285;SDS011;9776;50.798;6.430;2023-04-21T09:30:41;10.82;;;7.75;;
19285;SDS011;9776;50.798;6.430;2023-04-21T09:33:13;9.88;;;7.80;;
19285;SDS011;9776;50.798;6.430;2023-04-21T09:35:41;10.05;;;7.85;;
19285;SDS011;9776;50.798;6.430;2023-04-21T09:38:08;10.02;;;7.95;;
19285;SDS011;9776;50.798;6.430;2023-04-21T09:40:37;8.90;;;7.70;;
19285;SDS011;9776;50.798;6.430;2023-04-21T09:43:04;10.23;;;8.35;;
19285;SDS011;9776;50.798;6.430;2023-04-21T09:45:31;10.80;;;8.35;;
19285;SDS011;9776;50.798;6.430;2023-04-21T09:47:59;10.25;;;8.15;;
19285;SDS011;9776;50.798;6.430;2023-04-21T09:50:27;9.80;;;7.70;;
19285;SDS011;9776;50.798;6.430;2023-04-21T09:52:54;9.93;;;7.53;;
19285;SDS011;9776;50.798;6.430;2023-04-21T09:55:24;10.25;;;8.02;;
19285;SDS011;9776;50.798;6.430;2023-04-21T09:57:56;9.20;;;7.45;;
19285;SDS011;9776;50.798;6.430;2023-04-21T10:00:24;9.73;;;7.80;;
19285;SDS011;9776;50.798;6.430;2023-04-21T10:02:53;9.40;;;7.68;;
19285;SDS011;9776;50.798;6.430;2023-04-21T10:05:20;10.50;;;7.45;;
19285;SDS011;9776;50.798;6.430;2023-04-21T10:07:47;8.63;;;7.38;;
19285;SDS011;9776;50.798;6.430;2023-04-21T10:10:15;8.57;;;7.13;;
19285;SDS011;9776;50.798;6.430;2023-04-21T10:12:46;12.80;;;7.10;;
19285;SDS011;9776;50.798;6.430;2023-04-21T10:15:31;10.88;;;7.15;;
19285;SDS011;9776;50.798;6.430;2023-04-21T10:18:10;8.15;;;6.22;;
19285;SDS011;9776;50.798;6.430;2023-04-21T10:20:51;7.45;;;6.50;;
19285;SDS011;9776;50.798;6.430;2023-04-21T10:23:25;8.75;;;6.50;;
19285;SDS011;9776;50.798;6.430;2023-04-21T10:25:52;8.07;;;6.60;;
19285;SDS011;9776;50.798;6.430;2023-04-21T10:28:19;8.48;;;6.60;;
19285;SDS011;9776;50.798;6.430;2023-04-21T10:31:16;7.90;;;6.63;;
19285;SDS011;9776;50.798;6.430;2023-04-21T10:36:42;7.65;;;6.20;;
19285;SDS011;9776;50.798;6.430;2023-04-21T10:39:24;7.47;;;6.15;;
19285;SDS011;9776;50.798;6.430;2023-04-21T10:41:54;7.00;;;5.78;;
19285;SDS011;9776;50.798;6.430;2023-04-21T10:44:21;8.60;;;5.45;;
19285;SDS011;9776;50.798;6.430;2023-04-21T10:46:50;7.03;;;5.50;;
19285;SDS011;9776;50.798;6.430;2023-04-21T10:49:20;6.68;;;5.40;;
19285;SDS011;9776;50.798;6.430;2023-04-21T10:52:03;6.20;;;5.38;;
19285;SDS011;9776;50.798;6.430;2023-04-21T10:54:36;6.57;;;5.35;;
19285;SDS011;9776;50.798;6.430;2023-04-21T10:57:07;6.82;;;5.25;;
19285;SDS011;9776;50.798;6.430;2023-04-21T10:59:35;6.20;;;5.10;;
19285;SDS011;9776;50.798;6.430;2023-04-21T11:02:03;7.95;;;5.10;;
19285;SDS011;9776;50.798;6.430;2023-04-21T11:04:30;7.47;;;4.75;;
19285;SDS011;9776;50.798;6.430;2023-04-21T11:07:04;6.85;;;4.78;;
19285;SDS011;9776;50.798;6.430;2023-04-21T11:09:31;5.05;;;4.38;;
19285;SDS011;9776;50.798;6.430;2023-04-21T11:11:58;5.50;;;4.45;;
19285;SDS011;9776;50.798;6.430;2023-04-21T11:14:26;5.95;;;4.55;;
19285;SDS011;9776;50.798;6.430;2023-04-21T11:16:53;5.82;;;4.07;;
19285;SDS011;9776;50.798;6.430;2023-04-21T11:19:21;8.48;;;3.97;;
19285;SDS011;9776;50.798;6.430;2023-04-21T11:21:50;4.88;;;4.28;;
19285;SDS011;9776;50.798;6.430;2023-04-21T11:24:18;4.65;;;3.80;;
19285;SDS011;9776;50.798;6.430;2023-04-21T11:26:46;5.47;;;3.60;;
19285;SDS011;9776;50.798;6.430;2023-04-21T11:29:13;3.95;;;3.20;;
19285;SDS011;9776;50.798;6.430;2023-04-21T11:31:40;4.40;;;3.67;;
19285;SDS011;9776;50.798;6.430;2023-04-21T11:34:09;4.85;;;4.10;;
19285;SDS011;9776;50.798;6.430;2023-04-21T11:36:39;4.70;;;3.55;;
19285;SDS011;9776;50.798;6.430;2023-04-21T11:39:07;3.85;;;3.38;;
19285;SDS011;9776;50.798;6.430;2023-04-21T11:41:37;4.60;;;3.60;;
19285;SDS011;9776;50.798;6.430;2023-04-21T11:44:05;4.75;;;3.50;;
19285;SDS011;9776;50.798;6.430;2023-04-21T11:46:31;4.25;;;3.67;;
19285;SDS011;9776;50.798;6.430;2023-04-21T11:49:01;3.83;;;3.08;;
19285;SDS011;9776;50.798;6.430;2023-04-21T11:51:32;4.22;;;3.30;;
19285;SDS011;9776;50.798;6.430;2023-04-21T11:54:01;3.83;;;3.10;;
19285;SDS011;9776;50.798;6.430;2023-04-21T11:56:29;3.85;;;3.22;;
19285;SDS011;9776;50.798;6.430;2023-04-21T11:59:00;2.85;;;2.58;;
19285;SDS011;9776;50.798;6.430;2023-04-21T12:01:31;3.67;;;2.63;;
19285;SDS011;9776;50.798;6.430;2023-04-21T12:03:58;3.80;;;2.75;;
19285;SDS011;9776;50.798;6.430;2023-04-21T12:06:25;3.50;;;2.75;;
19285;SDS011;9776;50.798;6.430;2023-04-21T12:08:55;3.50;;;2.67;;
19285;SDS011;9776;50.798;6.430;2023-04-21T12:11:27;4.32;;;3.10;;
19285;SDS011;9776;50.798;6.430;2023-04-21T12:13:55;4.57;;;3.42;;
19285;SDS011;9776;50.798;6.430;2023-04-21T12:16:23;4.05;;;3.30;;
19285;SDS011;9776;50.798;6.430;2023-04-21T12:18:51;3.72;;;2.95;;
19285;SDS011;9776;50.798;6.430;2023-04-21T12:21:18;4.95;;;3.30;;
19285;SDS011;9776;50.798;6.430;2023-04-21T12:23:44;4.55;;;3.38;;
19285;SDS011;9776;50.798;6.430;2023-04-21T12:26:11;4.15;;;3.50;;
19285;SDS011;9776;50.798;6.430;2023-04-21T12:28:39;4.80;;;3.67;;
19285;SDS011;9776;50.798;6.430;2023-04-21T12:31:06;4.00;;;3.40;;
19285;SDS011;9776;50.798;6.430;2023-04-21T12:33:32;4.38;;;3.45;;
19285;SDS011;9776;50.798;6.430;2023-04-21T12:35:59;4.10;;;3.08;;
19285;SDS011;9776;50.798;6.430;2023-04-21T12:38:26;4.35;;;3.50;;
19285;SDS011;9776;50.798;6.430;2023-04-21T12:40:53;4.10;;;3.55;;
19285;SDS011;9776;50.798;6.430;2023-04-21T12:43:20;4.00;;;2.97;;
19285;SDS011;9776;50.798;6.430;2023-04-21T12:45:48;4.07;;;3.00;;
19285;SDS011;9776;50.798;6.430;2023-04-21T12:48:16;3.80;;;2.92;;
19285;SDS011;9776;50.798;6.430;2023-04-21T12:50:43;5.40;;;3.55;;
19285;SDS011;9776;50.798;6.430;2023-04-21T12:53:10;4.40;;;3.22;;
19285;SDS011;9776;50.798;6.430;2023-04-21T12:55:37;4.20;;;3.13;;
19285;SDS011;9776;50.798;6.430;2023-04-21T12:58:04;5.03;;;3.28;;
19285;SDS011;9776;50.798;6.430;2023-04-21T13:00:31;3.55;;;2.35;;
19285;SDS011;9776;50.798;6.430;2023-04-21T13:03:01;3.83;;;2.63;;
19285;SDS011;9776;50.798;6.430;2023-04-21T13:05:28;3.65;;;2.60;;
19285;SDS011;9776;50.798;6.430;2023-04-21T13:07:55;3.35;;;2.60;;
19285;SDS011;9776;50.798;6.430;2023-04-21T13:10:21;3.42;;;2.45;;
19285;SDS011;9776;50.798;6.430;2023-04-21T13:12:49;3.97;;;2.88;;
19285;SDS011;9776;50.798;6.430;2023-04-21T13:15:15;4.53;;;2.97;;
19285;SDS011;9776;50.798;6.430;2023-04-21T13:17:42;5.38;;;2.63;;
19285;SDS011;9776;50.798;6.430;2023-04-21T13:20:10;3.63;;;2.42;;
19285;SDS011;9776;50.798;6.430;2023-04-21T13:22:39;3.47;;;2.65;;
19285;SDS011;9776;50.798;6.430;2023-04-21T13:25:06;3.38;;;2.47;;
19285;SDS011;9776;50.798;6.430;2023-04-21T13:27:33;4.22;;;2.70;;
19285;SDS011;9776;50.798;6.430;2023-04-21T13:30:02;3.63;;;2.88;;
19285;SDS011;9776;50.798;6.430;2023-04-21T13:32:30;3.75;;;2.70;;
19285;SDS011;9776;50.798;6.430;2023-04-21T13:34:56;5.10;;;2.70;;
19285;SDS011;9776;50.798;6.430;2023-04-21T13:37:24;3.03;;;2.25;;
19285;SDS011;9776;50.798;6.430;2023-04-21T13:39:51;3.85;;;3.00;;
19285;SDS011;9776;50.798;6.430;2023-04-21T13:42:18;3.60;;;2.80;;
19285;SDS011;9776;50.798;6.430;2023-04-21T13:44:44;3.90;;;3.00;;
19285;SDS011;9776;50.798;6.430;2023-04-21T13:47:11;5.78;;;3.17;;
19285;SDS011;9776;50.798;6.430;2023-04-21T13:49:37;3.20;;;2.50;;
19285;SDS011;9776;50.798;6.430;2023-04-21T13:52:04;4.05;;;2.72;;
19285;SDS011;9776;50.798;6.430;2023-04-21T13:54:32;4.57;;;3.03;;
19285;SDS011;9776;50.798;6.430;2023-04-21T13:56:59;3.22;;;2.40;;
19285;SDS011;9776;50.798;6.430;2023-04-21T13:59:26;4.97;;;3.10;;
19285;SDS011;9776;50.798;6.430;2023-04-21T14:01:52;4.40;;;2.88;;
19285;SDS011;9776;50.798;6.430;2023-04-21T14:04:19;4.57;;;3.13;;
19285;SDS011;9776;50.798;6.430;2023-04-21T14:06:47;4.70;;;3.25;;
19285;SDS011;9776;50.798;6.430;2023-04-21T14:09:13;4.50;;;3.20;;
19285;SDS011;9776;50.798;6.430;2023-04-21T14:11:41;4.68;;;2.97;;
19285;SDS011;9776;50.798;6.430;2023-04-21T14:14:08;4.63;;;3.25;;
19285;SDS011;9776;50.798;6.430;2023-04-21T14:16:35;4.15;;;3.05;;
19285;SDS011;9776;50.798;6.430;2023-04-21T14:19:02;5.85;;;2.95;;
19285;SDS011;9776;50.798;6.430;2023-04-21T14:21:28;4.68;;;3.38;;
19285;SDS011;9776;50.798;6.430;2023-04-21T14:23:55;5.75;;;3.30;;
19285;SDS011;9776;50.798;6.430;2023-04-21T14:26:22;3.83;;;3.00;;
19285;SDS011;9776;50.798;6.430;2023-04-21T14:28:50;4.05;;;2.90;;
19285;SDS011;9776;50.798;6.430;2023-04-21T14:31:17;3.85;;;2.85;;
19285;SDS011;9776;50.798;6.430;2023-04-21T14:33:43;4.47;;;2.67;;
19285;SDS011;9776;50.798;6.430;2023-04-21T14:36:10;3.33;;;2.33;;
19285;SDS011;9776;50.798;6.430;2023-04-21T14:38:37;3.25;;;2.38;;
19285;SDS011;9776;50.798;6.430;2023-04-21T14:41:04;5.32;;;2.85;;
19285;SDS011;9776;50.798;6.430;2023-04-21T14:43:30;3.55;;;2.78;;
19285;SDS011;9776;50.798;6.430;2023-04-21T14:45:58;3.63;;;2.50;;
19285;SDS011;9776;50.798;6.430;2023-04-21T14:48:25;4.53;;;3.05;;
19285;SDS011;9776;50.798;6.430;2023-04-21T14:50:52;4.18;;;2.63;;
19285;SDS011;9776;50.798;6.430;2023-04-21T14:53:18;4.55;;;2.63;;